Time;durP1;ratioP1;P1;durP2;ratioP2;P2;SDS_P1;SDS_P2;PMS_P1;PMS_P2;Temp;Humidity;BMP_temperature;BMP_pressure;BME280_temperature;BME280_humidity;BME280_pressure;Samples;Min_cycle;Max_cycle;Signal;HPM_P1;HPM_P2
2022/08/29 00:00:17;;;;;;;8.33;4.63;;;13.80;99.90;;;;;;5070380;28;20304;-51
2022/08/29 00:02:47;;;;;;;8.97;4.90;;;13.80;99.90;;;;;;5059747;28;20236;-51
2022/08/29 00:05:16;;;;;;;7.23;4.50;;;13.80;99.90;;;;;;5086149;28;20297;-51
2022/08/29 00:07:44;;;;;;;9.63;4.50;;;13.70;99.90;;;;;;5079926;28;20204;-49
2022/08/29 00:10:12;;;;;;;9.00;4.80;;;13.70;99.90;;;;;;5080608;28;20208;-52
2022/08/29 00:12:41;;;;;;;7.77;4.17;;;13.70;99.90;;;;;;5090295;28;20208;-51
2022/08/29 00:15:11;;;;;;;8.13;4.23;;;13.70;99.90;;;;;;5090630;28;20290;-50
2022/08/29 00:17:41;;;;;;;10.47;4.53;;;13.60;99.90;;;;;;5084791;28;20237;-50
2022/08/29 00:20:12;;;;;;;12.20;4.83;;;13.60;99.90;;;;;;5090543;28;20220;-50
2022/08/29 00:22:40;;;;;;;9.17;4.23;;;13.60;99.90;;;;;;5090392;28;20212;-52
2022/08/29 00:25:09;;;;;;;11.03;4.83;;;13.60;99.90;;;;;;5090588;28;20289;-50
2022/08/29 00:27:37;;;;;;;7.90;4.50;;;13.60;99.90;;;;;;5060900;28;20647;-52
2022/08/29 00:30:08;;;;;;;8.83;4.53;;;13.60;99.90;;;;;;5082703;28;20297;-52
2022/08/29 00:32:37;;;;;;;10.70;4.63;;;13.60;99.90;;;;;;5077445;28;20206;-52
2022/08/29 00:35:09;;;;;;;9.50;4.63;;;13.50;99.90;;;;;;5067172;28;20451;-52
2022/08/29 00:37:37;;;;;;;7.27;4.63;;;13.50;99.90;;;;;;5072364;28;20208;-50
2022/08/29 00:40:10;;;;;;;7.33;4.70;;;13.50;99.90;;;;;;5089005;28;20224;-51
2022/08/29 00:42:38;;;;;;;9.90;4.63;;;13.40;99.90;;;;;;5089119;28;20245;-52
2022/08/29 00:45:08;;;;;;;9.37;5.27;;;13.30;99.90;;;;;;5090368;28;20286;-52
2022/08/29 00:47:41;;;;;;;10.37;5.57;;;13.30;99.90;;;;;;5090012;28;20266;-51
2022/08/29 00:50:19;;;;;;;8.97;5.40;;;13.30;99.90;;;;;;5090141;28;20671;-51
2022/08/29 00:52:48;;;;;;;11.80;5.03;;;13.20;99.90;;;;;;5090431;28;20204;-51
2022/08/29 00:55:21;;;;;;;11.23;4.90;;;13.20;99.90;;;;;;5088823;28;20216;-50
2022/08/29 00:57:53;;;;;;;8.20;4.83;;;13.20;99.90;;;;;;5091375;28;20241;-51
2022/08/29 01:00:22;;;;;;;8.67;5.03;;;13.10;99.90;;;;;;5088204;28;20271;-51
2022/08/29 01:02:50;;;;;;;11.63;5.10;;;13.10;99.90;;;;;;5089655;28;20262;-52
2022/08/29 01:05:21;;;;;;;11.37;5.27;;;13.10;99.90;;;;;;5094204;28;20933;-52
2022/08/29 01:07:50;;;;;;;9.83;5.37;;;13.00;99.90;;;;;;5082527;28;20673;-52
2022/08/29 01:13:03;;;;;;;9.03;5.03;;;13.00;99.90;;;;;;5058414;28;20265;-51
2022/08/29 01:15:33;;;;;;;12.73;5.57;;;12.90;99.90;;;;;;5092323;28;20286;-51
2022/08/29 01:18:03;;;;;;;10.00;5.13;;;13.00;99.90;;;;;;5089046;28;20287;-51
2022/08/29 01:20:40;;;;;;;11.77;5.53;;;12.90;99.90;;;;;;5064090;28;20815;-51
2022/08/29 01:23:18;;;;;;;12.07;5.17;;;12.90;99.90;;;;;;5092872;28;20207;-51
2022/08/29 01:25:50;;;;;;;9.23;5.50;;;12.90;99.90;;;;;;5093932;28;20200;-50
2022/08/29 01:28:22;;;;;;;8.63;5.20;;;12.90;99.90;;;;;;5087223;28;20201;-50
2022/08/29 01:30:59;;;;;;;11.00;5.27;;;12.80;99.90;;;;;;5067667;28;20250;-51
2022/08/29 01:33:33;;;;;;;10.13;5.10;;;12.80;99.90;;;;;;5093177;28;20301;-51
2022/08/29 01:36:01;;;;;;;10.40;5.83;;;12.90;99.90;;;;;;5093563;28;20229;-53
2022/08/29 01:38:29;;;;;;;10.77;5.20;;;12.80;99.90;;;;;;5087952;28;20207;-52
2022/08/29 01:40:59;;;;;;;8.60;5.37;;;12.80;99.90;;;;;;5073267;28;20221;-51
2022/08/29 01:43:28;;;;;;;11.20;5.67;;;12.80;99.90;;;;;;5086364;28;20203;-51
2022/08/29 01:45:57;;;;;;;11.13;5.73;;;12.80;99.90;;;;;;5092890;28;20262;-52
2022/08/29 01:48:26;;;;;;;11.30;5.60;;;12.70;99.90;;;;;;5093400;28;20240;-51
2022/08/29 01:50:56;;;;;;;12.60;5.90;;;12.70;99.90;;;;;;5093931;28;20266;-51
2022/08/29 01:53:24;;;;;;;16.30;5.53;;;12.60;99.90;;;;;;5093761;28;20258;-51
2022/08/29 01:55:52;;;;;;;12.43;5.97;;;12.60;99.90;;;;;;5093492;28;20216;-51
2022/08/29 01:58:22;;;;;;;16.03;6.07;;;12.60;99.90;;;;;;5093595;28;20259;-51
2022/08/29 02:00:50;;;;;;;11.67;6.33;;;12.60;99.90;;;;;;5093335;28;20225;-50
2022/08/29 02:03:18;;;;;;;14.90;8.00;;;12.60;99.90;;;;;;5093765;28;20576;-51
2022/08/29 02:05:47;;;;;;;9.80;5.57;;;12.50;99.90;;;;;;5092983;28;20207;-51
2022/08/29 02:08:15;;;;;;;9.33;5.23;;;12.60;99.90;;;;;;5093373;28;20201;-52
2022/08/29 02:10:43;;;;;;;12.70;5.37;;;12.60;99.90;;;;;;5092415;28;20201;-51
2022/08/29 02:13:12;;;;;;;10.67;5.43;;;12.50;99.90;;;;;;5093477;28;20204;-52
2022/08/29 02:15:42;;;;;;;14.33;5.90;;;12.50;99.90;;;;;;5093598;28;20228;-52
2022/08/29 02:18:10;;;;;;;10.93;5.70;;;12.50;99.90;;;;;;5075708;28;20239;-49
2022/08/29 02:20:38;;;;;;;10.57;5.37;;;12.50;99.90;;;;;;5092745;28;20308;-52
2022/08/29 02:23:06;;;;;;;9.77;5.97;;;12.50;99.90;;;;;;5093050;28;20584;-52
2022/08/29 02:25:54;;;;;;;10.70;5.43;;;12.40;99.90;;;;;;5093512;28;20303;-52
2022/08/29 02:28:22;;;;;;;11.47;5.77;;;12.40;99.90;;;;;;5085801;28;20204;-51
2022/08/29 02:30:54;;;;;;;13.83;5.17;;;12.40;99.90;;;;;;5093388;28;20250;-49
2022/08/29 02:33:24;;;;;;;9.60;5.30;;;12.40;99.90;;;;;;5092181;28;20727;-50
2022/08/29 02:35:53;;;;;;;10.57;5.70;;;12.40;99.90;;;;;;5092995;28;20200;-51
2022/08/29 02:38:22;;;;;;;9.00;5.13;;;12.40;99.90;;;;;;5087140;28;20204;-51
2022/08/29 02:40:51;;;;;;;14.20;6.00;;;12.30;99.90;;;;;;5092166;28;20250;-52
2022/08/29 02:43:20;;;;;;;10.57;5.97;;;12.30;99.90;;;;;;5093152;28;20629;-51
2022/08/29 02:45:48;;;;;;;11.73;5.57;;;12.30;99.90;;;;;;5091748;28;20208;-52
2022/08/29 02:48:18;;;;;;;8.47;5.67;;;12.30;99.90;;;;;;5092509;28;20266;-51
2022/08/29 02:50:48;;;;;;;10.47;5.80;;;12.20;99.90;;;;;;5092027;28;20746;-51
2022/08/29 02:53:18;;;;;;;10.77;5.60;;;12.20;99.90;;;;;;5092564;28;20270;-51
2022/08/29 02:55:47;;;;;;;10.03;5.47;;;12.10;99.90;;;;;;5088898;28;20212;-52
2022/08/29 02:58:15;;;;;;;10.20;5.63;;;12.10;99.90;;;;;;5080814;28;20334;-52
2022/08/29 03:00:44;;;;;;;11.73;5.57;;;12.10;99.90;;;;;;5092570;28;20228;-52
2022/08/29 03:03:12;;;;;;;10.83;5.20;;;12.20;99.90;;;;;;5092210;28;20254;-49
2022/08/29 03:05:42;;;;;;;12.80;5.67;;;12.20;99.90;;;;;;5092328;28;20228;-51
2022/08/29 03:08:12;;;;;;;10.37;5.90;;;12.10;99.90;;;;;;5064710;28;20266;-49
2022/08/29 03:10:42;;;;;;;10.73;5.97;;;12.10;99.90;;;;;;5091827;28;20207;-51
2022/08/29 03:13:10;;;;;;;9.50;5.33;;;12.10;99.90;;;;;;5087092;28;20205;-51
2022/08/29 03:15:39;;;;;;;8.83;5.30;;;12.10;99.90;;;;;;5092154;28;20232;-50
2022/08/29 03:18:08;;;;;;;8.37;5.40;;;12.00;99.90;;;;;;5088338;28;20258;-51
2022/08/29 03:20:38;;;;;;;10.37;5.77;;;12.10;99.90;;;;;;5091425;28;20289;-52
2022/08/29 03:23:08;;;;;;;11.17;5.23;;;12.10;99.90;;;;;;5092034;28;20864;-50
2022/08/29 03:25:36;;;;;;;14.07;5.57;;;12.10;99.90;;;;;;5090790;28;20228;-52
2022/08/29 03:28:04;;;;;;;10.63;5.93;;;12.10;99.90;;;;;;5085312;28;20729;-52
2022/08/29 03:30:33;;;;;;;9.57;5.43;;;12.10;99.90;;;;;;5089792;28;20258;-51
2022/08/29 03:33:01;;;;;;;8.93;5.43;;;12.00;99.90;;;;;;5090944;28;20669;-50
2022/08/29 03:35:29;;;;;;;11.47;5.40;;;12.00;99.90;;;;;;5090808;28;20228;-51
2022/08/29 03:37:58;;;;;;;11.27;5.60;;;12.00;99.90;;;;;;5091760;28;20619;-49
2022/08/29 03:40:27;;;;;;;11.07;5.87;;;11.90;99.90;;;;;;5090713;28;20278;-52
2022/08/29 03:42:56;;;;;;;11.07;5.33;;;11.90;99.90;;;;;;5091722;28;20244;-50
2022/08/29 03:45:24;;;;;;;8.37;5.63;;;11.80;99.90;;;;;;5091207;28;20220;-52
2022/08/29 03:47:52;;;;;;;7.20;5.23;;;11.80;99.90;;;;;;5091303;28;20562;-50
2022/08/29 03:50:23;;;;;;;12.97;5.60;;;11.80;99.90;;;;;;5090290;28;20211;-52
2022/08/29 03:52:51;;;;;;;9.57;5.67;;;11.70;99.90;;;;;;5071303;28;20871;-51
2022/08/29 03:55:20;;;;;;;12.37;5.67;;;11.70;99.90;;;;;;5067457;28;20705;-52
2022/08/29 03:57:49;;;;;;;12.33;5.80;;;11.70;99.90;;;;;;5070559;28;20279;-51
2022/08/29 04:00:19;;;;;;;9.90;5.80;;;11.70;99.90;;;;;;5070142;28;20259;-49
2022/08/29 04:02:49;;;;;;;11.10;5.70;;;11.70;99.90;;;;;;5070040;28;20209;-49
2022/08/29 04:05:18;;;;;;;10.33;5.93;;;11.70;99.90;;;;;;5069744;28;20235;-52
2022/08/29 04:07:48;;;;;;;10.87;5.30;;;11.60;99.90;;;;;;5068953;28;20666;-50
2022/08/29 04:10:21;;;;;;;7.77;5.00;;;11.60;99.90;;;;;;5067677;28;20267;-51
2022/08/29 04:12:51;;;;;;;10.03;5.27;;;11.60;99.90;;;;;;5061124;28;20224;-50
2022/08/29 04:15:22;;;;;;;10.00;6.30;;;11.60;99.90;;;;;;5089510;28;20646;-51
2022/08/29 04:17:53;;;;;;;10.30;5.57;;;11.50;99.90;;;;;;5070734;28;20213;-51
2022/08/29 04:20:22;;;;;;;10.23;5.43;;;11.60;99.90;;;;;;5068554;28;20244;-51
2022/08/29 04:22:53;;;;;;;9.17;5.23;;;11.50;99.90;;;;;;5069341;28;20207;-51
2022/08/29 04:25:22;;;;;;;9.43;5.13;;;11.60;99.90;;;;;;5068168;28;20598;-51
2022/08/29 04:27:52;;;;;;;8.27;5.00;;;11.50;99.90;;;;;;5069262;28;20213;-51
2022/08/29 04:30:23;;;;;;;12.97;7.00;;;11.50;99.90;;;;;;5070065;28;20588;-52
2022/08/29 04:32:52;;;;;;;9.40;5.60;;;11.50;99.90;;;;;;5069427;28;20193;-50
2022/08/29 04:35:20;;;;;;;12.60;6.20;;;11.50;99.90;;;;;;5069135;28;20225;-51
2022/08/29 04:37:49;;;;;;;9.50;5.97;;;11.60;99.90;;;;;;5069913;28;20205;-51
2022/08/29 04:40:20;;;;;;;10.33;5.60;;;11.60;99.90;;;;;;5068857;28;20259;-52
2022/08/29 04:42:51;;;;;;;9.37;5.40;;;11.50;99.90;;;;;;5059139;28;20217;-51
2022/08/29 04:45:22;;;;;;;9.40;4.80;;;11.50;99.90;;;;;;5059672;28;20227;-51
2022/08/29 04:47:50;;;;;;;10.27;5.07;;;11.50;99.90;;;;;;5066151;28;20266;-51
2022/08/29 04:50:21;;;;;;;9.70;5.20;;;11.50;99.90;;;;;;5069485;28;20205;-51
2022/08/29 04:52:51;;;;;;;12.47;5.70;;;11.60;99.90;;;;;;5064191;28;20197;-51
2022/08/29 04:55:22;;;;;;;8.93;4.97;;;11.50;99.90;;;;;;5057745;28;20609;-51
2022/08/29 04:57:56;;;;;;;9.27;4.83;;;11.60;99.90;;;;;;5055215;28;20286;-51
2022/08/29 05:00:26;;;;;;;9.33;5.30;;;11.60;99.90;;;;;;5063522;28;20232;-52
2022/08/29 05:02:55;;;;;;;12.03;5.30;;;11.60;99.90;;;;;;5065124;28;20302;-52
2022/08/29 05:05:24;;;;;;;9.33;5.20;;;11.60;99.90;;;;;;5066689;28;20239;-52
2022/08/29 05:07:52;;;;;;;8.97;5.10;;;11.80;99.90;;;;;;5068267;28;20662;-52
2022/08/29 05:10:22;;;;;;;9.50;5.30;;;12.50;99.90;;;;;;5069705;28;20218;-51
2022/08/29 05:12:50;;;;;;;11.30;5.50;;;13.10;99.90;;;;;;5069603;28;20213;-52
2022/08/29 05:15:19;;;;;;;8.43;5.60;;;13.50;99.90;;;;;;5068420;28;20232;-52
2022/08/29 05:17:48;;;;;;;7.87;5.27;;;13.40;99.90;;;;;;5067588;28;20610;-52
2022/08/29 05:20:16;;;;;;;9.07;4.80;;;13.40;99.90;;;;;;5058856;28;20209;-51
2022/08/29 05:22:44;;;;;;;8.37;4.97;;;13.50;99.90;;;;;;5063673;28;20279;-50
2022/08/29 05:25:13;;;;;;;7.77;5.10;;;13.70;99.90;;;;;;5060690;28;20229;-51
2022/08/29 05:27:46;;;;;;;8.37;4.83;;;14.00;99.90;;;;;;5067983;28;20996;-50
2022/08/29 05:30:15;;;;;;;9.90;5.00;;;14.00;99.90;;;;;;5061427;28;20209;-52
2022/08/29 05:33:03;;;;;;;9.30;4.77;;;13.70;99.90;;;;;;5060165;28;20194;-51
2022/08/29 05:35:31;;;;;;;8.80;4.80;;;13.60;99.90;;;;;;5060896;28;20241;-50
2022/08/29 05:37:59;;;;;;;10.37;4.67;;;13.70;99.90;;;;;;5058929;28;20201;-51
2022/08/29 05:40:30;;;;;;;8.50;4.70;;;13.80;99.90;;;;;;5068248;28;20205;-52
2022/08/29 05:42:58;;;;;;;9.20;4.67;;;13.80;99.90;;;;;;5062042;28;20301;-50
2022/08/29 05:45:26;;;;;;;10.13;4.77;;;13.80;99.90;;;;;;5064611;28;20234;-50
2022/08/29 05:47:55;;;;;;;8.83;4.90;;;13.90;99.90;;;;;;5065926;28;20268;-51
2022/08/29 05:50:25;;;;;;;8.90;5.47;;;14.00;99.90;;;;;;5070745;28;20278;-50
2022/08/29 05:52:53;;;;;;;10.60;5.43;;;14.00;99.90;;;;;;5066717;28;20279;-52
2022/08/29 05:55:21;;;;;;;12.33;5.43;;;14.10;99.90;;;;;;5063728;28;20243;-51
2022/08/29 05:57:52;;;;;;;8.83;5.43;;;14.10;99.90;;;;;;5071655;28;20197;-52
2022/08/29 06:00:20;;;;;;;10.67;5.20;;;14.10;99.90;;;;;;5071644;28;20247;-50
2022/08/29 06:02:49;;;;;;;13.77;6.23;;;14.20;99.90;;;;;;5071161;28;20221;-51
2022/08/29 06:05:18;;;;;;;10.70;5.23;;;14.20;99.90;;;;;;5071309;28;20217;-51
2022/08/29 06:07:48;;;;;;;9.77;5.20;;;14.30;99.90;;;;;;5065504;28;20257;-51
2022/08/29 06:10:16;;;;;;;10.43;5.47;;;14.30;99.90;;;;;;5070199;28;20243;-51
2022/08/29 06:12:44;;;;;;;8.53;5.30;;;14.20;99.90;;;;;;5072370;28;20573;-51
2022/08/29 06:15:12;;;;;;;11.00;5.00;;;14.30;99.90;;;;;;5074621;28;20286;-51
2022/08/29 06:17:40;;;;;;;11.37;5.13;;;14.30;99.90;;;;;;5071284;28;20212;-51
2022/08/29 06:20:10;;;;;;;8.73;5.17;;;14.40;99.90;;;;;;5074926;28;20648;-50
2022/08/29 06:22:39;;;;;;;12.57;5.33;;;14.70;99.90;;;;;;5073449;28;20278;-51
2022/08/29 06:25:09;;;;;;;10.30;5.00;;;14.90;99.90;;;;;;5070333;28;20229;-52
2022/08/29 06:27:57;;;;;;;8.32;5.15;;;15.10;99.90;;;;;;5072959;28;20296;-51
2022/08/29 06:30:26;;;;;;;12.27;5.10;;;15.70;99.90;;;;;;5074283;28;20253;-52
2022/08/29 06:32:54;;;;;;;12.18;5.60;;;16.30;99.90;;;;;;5073021;28;20238;-51
2022/08/29 06:35:22;;;;;;;11.05;5.47;;;16.80;99.90;;;;;;5073077;28;20220;-51
2022/08/29 06:37:50;;;;;;;7.95;5.10;;;17.40;99.90;;;;;;5072963;28;20263;-50
2022/08/29 06:40:19;;;;;;;11.13;5.57;;;17.70;99.90;;;;;;5075847;28;20204;-52
2022/08/29 06:42:48;;;;;;;10.25;4.93;;;18.30;99.90;;;;;;5072710;28;20229;-51
2022/08/29 06:45:16;;;;;;;8.73;5.07;;;18.40;99.90;;;;;;5073275;28;20229;-51
2022/08/29 06:47:46;;;;;;;10.00;5.25;;;18.70;99.90;;;;;;5074654;28;20216;-51
2022/08/29 06:50:15;;;;;;;10.02;4.97;;;18.50;99.90;;;;;;5072100;28;20205;-52
2022/08/29 06:52:43;;;;;;;8.88;5.05;;;18.50;99.90;;;;;;5074158;28;20250;-52
2022/08/29 06:55:14;;;;;;;11.95;5.32;;;18.50;99.90;;;;;;5069654;28;20229;-52
2022/08/29 06:57:44;;;;;;;7.72;4.63;;;18.70;99.90;;;;;;5069765;28;20235;-51
2022/08/29 07:00:14;;;;;;;11.10;5.45;;;18.90;99.90;;;;;;5070362;28;20658;-52
2022/08/29 07:02:50;;;;;;;9.27;4.93;;;19.20;99.90;;;;;;5069708;28;20216;-51
2022/08/29 07:05:20;;;;;;;10.18;5.22;;;19.20;99.90;;;;;;5068627;28;20227;-50
2022/08/29 07:07:48;;;;;;;10.75;4.88;;;19.20;99.90;;;;;;5068587;28;20270;-51
2022/08/29 07:10:17;;;;;;;11.52;4.80;;;19.20;99.90;;;;;;5069707;28;20258;-53
2022/08/29 07:12:51;;;;;;;9.55;4.70;;;19.10;99.90;;;;;;5073035;28;20197;-51
2022/08/29 07:15:20;;;;;;;11.38;4.95;;;19.10;99.90;;;;;;5074568;28;20611;-52
2022/08/29 07:17:49;;;;;;;7.60;4.63;;;19.10;99.90;;;;;;5072132;28;20209;-52
2022/08/29 07:20:17;;;;;;;7.97;4.63;;;19.30;99.90;;;;;;5068432;28;20205;-52
2022/08/29 07:22:50;;;;;;;9.57;4.70;;;19.60;99.90;;;;;;5069481;28;20273;-51
2022/08/29 07:25:20;;;;;;;10.27;4.90;;;19.80;99.90;;;;;;5064675;28;20217;-51
2022/08/29 07:27:49;;;;;;;8.30;4.90;;;19.80;99.90;;;;;;5071875;28;20204;-52
2022/08/29 07:30:22;;;;;;;7.72;4.88;;;19.80;99.90;;;;;;5066956;28;20197;-51
2022/08/29 07:32:50;;;;;;;13.15;5.40;;;20.00;99.90;;;;;;5069638;28;20681;-51
2022/08/29 07:35:19;;;;;;;9.65;4.32;;;20.30;99.90;;;;;;5067685;28;20224;-52
2022/08/29 07:37:59;;;;;;;9.98;5.10;;;20.30;99.90;;;;;;5067223;28;20232;-52
2022/08/29 07:40:28;;;;;;;9.38;4.30;;;20.40;99.90;;;;;;5066324;28;20197;-50
2022/08/29 07:42:57;;;;;;;11.20;4.13;;;20.50;99.90;;;;;;5068907;28;20244;-52
2022/08/29 07:45:26;;;;;;;7.45;4.25;;;20.70;99.90;;;;;;5062543;28;20236;-52
2022/08/29 07:47:55;;;;;;;8.75;4.20;;;21.00;99.90;;;;;;5065688;28;20216;-52
2022/08/29 07:50:23;;;;;;;8.18;4.07;;;20.80;99.90;;;;;;5066986;28;20615;-52
2022/08/29 07:52:51;;;;;;;10.98;4.13;;;20.80;99.90;;;;;;5065988;28;20568;-51
2022/08/29 07:55:21;;;;;;;6.97;4.22;;;20.70;99.90;;;;;;5066336;28;20244;-52
2022/08/29 07:57:51;;;;;;;9.10;4.10;;;20.70;99.90;;;;;;5066168;28;20201;-52
2022/08/29 08:00:20;;;;;;;6.35;3.50;;;21.00;99.90;;;;;;5065819;28;20220;-52
2022/08/29 08:02:50;;;;;;;8.55;3.88;;;21.20;99.90;;;;;;5062487;28;20244;-52
2022/08/29 08:05:18;;;;;;;12.20;4.20;;;20.90;99.90;;;;;;5066618;28;20229;-51
2022/08/29 08:07:48;;;;;;;7.80;4.20;;;20.90;99.90;;;;;;5068060;28;20208;-51
2022/08/29 08:10:23;;;;;;;11.68;4.20;;;20.70;99.90;;;;;;5066680;28;20295;-51
2022/08/29 08:12:51;;;;;;;6.82;3.97;;;20.60;99.90;;;;;;5070478;28;20943;-52
2022/08/29 08:15:20;;;;;;;10.07;4.50;;;20.40;99.90;;;;;;5071303;28;20241;-52
2022/08/29 08:17:50;;;;;;;9.63;4.00;;;20.40;99.90;;;;;;5069770;28;20207;-52
2022/08/29 08:20:18;;;;;;;7.97;4.20;;;20.50;99.90;;;;;;5073057;28;20208;-50
2022/08/29 08:22:46;;;;;;;10.43;4.35;;;20.40;99.90;;;;;;5069481;28;20267;-50
2022/08/29 08:25:14;;;;;;;6.72;3.92;;;20.40;99.90;;;;;;5069810;28;20309;-52
2022/08/29 08:27:42;;;;;;;8.65;3.83;;;20.30;99.90;;;;;;5072516;28;20209;-51
2022/08/29 08:30:12;;;;;;;8.05;4.00;;;20.40;99.90;;;;;;5071554;28;20208;-51
2022/08/29 08:32:40;;;;;;;9.43;4.10;;;20.50;99.90;;;;;;5067628;28;20255;-51
2022/08/29 08:35:16;;;;;;;7.30;3.60;;;20.80;99.90;;;;;;5071481;28;20303;-51
2022/08/29 08:37:46;;;;;;;7.55;3.78;;;20.80;99.90;;;;;;5073464;28;20587;-51
2022/08/29 08:40:21;;;;;;;7.70;4.00;;;20.90;99.90;;;;;;5069623;28;20243;-51
2022/08/29 08:42:59;;;;;;;8.52;3.72;;;21.00;99.90;;;;;;5072352;28;20266;-49
2022/08/29 08:45:33;;;;;;;7.05;4.40;;;21.10;99.90;;;;;;5070151;28;20228;-50
2022/08/29 08:48:06;;;;;;;7.68;3.90;;;21.10;99.90;;;;;;5070743;28;20208;-51
2022/08/29 08:50:43;;;;;;;13.10;3.92;;;20.90;99.90;;;;;;5073605;28;20212;-51
2022/08/29 08:53:18;;;;;;;6.68;3.92;;;20.90;99.90;;;;;;5069054;28;20201;-51
2022/08/29 08:55:50;;;;;;;7.10;3.97;;;20.90;99.90;;;;;;5067941;28;20231;-51
2022/08/29 08:58:31;;;;;;;8.55;4.38;;;21.00;99.90;;;;;;5067849;28;20209;-51
2022/08/29 09:01:03;;;;;;;10.32;4.20;;;21.10;99.90;;;;;;5072400;28;20201;-51
2022/08/29 09:04:14;;;;;;;7.35;4.00;;;21.20;99.90;;;;;;5066826;28;20240;-50
2022/08/29 09:06:56;;;;;;;7.75;3.63;;;21.10;99.90;;;;;;5018557;28;20212;-51
2022/08/29 09:09:37;;;;;;;5.38;3.63;;;21.10;99.90;;;;;;5070539;28;20209;-51
2022/08/29 09:12:19;;;;;;;5.70;3.78;;;21.20;99.90;;;;;;5068244;28;20208;-52
2022/08/29 09:14:57;;;;;;;10.23;4.25;;;21.30;99.90;;;;;;5058750;28;20286;-51
2022/08/29 09:17:31;;;;;;;8.93;3.90;;;21.40;99.90;;;;;;5064342;28;20632;-52
2022/08/29 09:20:05;;;;;;;7.95;3.60;;;21.30;99.90;;;;;;5069792;28;20212;-51
2022/08/29 09:22:35;;;;;;;9.10;3.80;;;21.30;99.90;;;;;;5066509;28;20208;-51
2022/08/29 09:25:05;;;;;;;8.60;3.80;;;21.10;99.90;;;;;;5065456;28;20286;-51
2022/08/29 09:27:35;;;;;;;6.78;3.50;;;21.00;99.90;;;;;;5071047;28;20265;-51
2022/08/29 09:30:08;;;;;;;11.38;3.97;;;21.00;99.90;;;;;;5069873;28;20209;-50
2022/08/29 09:32:54;;;;;;;11.10;4.10;;;21.00;99.90;;;;;;5064871;28;20204;-51
2022/08/29 09:35:24;;;;;;;8.60;3.63;;;21.20;99.90;;;;;;5066172;28;20702;-51
2022/08/29 09:37:59;;;;;;;7.28;3.75;;;21.30;99.90;;;;;;5068860;28;20220;-51
2022/08/29 09:40:49;;;;;;;9.70;4.10;;;21.50;99.90;;;;;;5069094;28;20243;-52
2022/08/29 09:43:22;;;;;;;9.02;3.83;;;21.50;99.90;;;;;;5069733;28;20231;-52
2022/08/29 09:46:12;;;;;;;7.57;3.72;;;21.60;99.90;;;;;;5071582;28;20197;-52
2022/08/29 09:48:42;;;;;;;6.93;3.88;;;21.70;99.90;;;;;;5069411;28;20301;-50
2022/08/29 09:51:14;;;;;;;8.23;4.38;;;21.90;99.90;;;;;;5068016;28;20205;-52
2022/08/29 09:53:44;;;;;;;8.05;3.92;;;22.10;99.90;;;;;;5067716;28;20237;-51
2022/08/29 09:56:17;;;;;;;6.40;4.00;;;21.90;99.90;;;;;;5070405;28;20201;-52
2022/08/29 09:58:58;;;;;;;8.88;3.75;;;21.90;99.90;;;;;;5071002;28;20283;-51
2022/08/29 10:01:27;;;;;;;7.65;4.05;;;22.10;99.90;;;;;;5068465;28;20262;-52
2022/08/29 10:03:59;;;;;;;6.57;3.80;;;22.10;99.90;;;;;;5065528;28;20607;-52
2022/08/29 10:06:30;;;;;;;6.72;3.72;;;22.10;99.90;;;;;;5069459;28;20251;-52
2022/08/29 10:09:04;;;;;;;5.82;3.50;;;22.30;99.90;;;;;;5069132;28;20213;-52
2022/08/29 10:11:40;;;;;;;5.50;3.55;;;22.10;99.90;;;;;;5068347;28;20263;-52
2022/08/29 10:14:13;;;;;;;7.32;3.70;;;22.00;99.90;;;;;;5059443;28;20240;-52
2022/08/29 10:16:51;;;;;;;8.05;3.92;;;22.00;99.90;;;;;;5072784;28;20574;-52
2022/08/29 10:19:25;;;;;;;7.32;4.03;;;22.10;99.90;;;;;;5071617;28;20295;-52
2022/08/29 10:22:07;;;;;;;5.43;3.53;;;22.10;99.90;;;;;;5069250;28;20289;-52
2022/08/29 10:24:54;;;;;;;9.07;3.70;;;22.40;99.90;;;;;;5069500;28;20233;-50
2022/08/29 10:27:30;;;;;;;6.65;3.50;;;22.60;99.90;;;;;;5070073;28;20196;-52
2022/08/29 10:30:09;;;;;;;8.73;4.07;;;22.50;99.90;;;;;;5067890;28;20308;-51
2022/08/29 10:33:06;;;;;;;8.55;3.97;;;22.40;99.90;;;;;;5068113;28;20212;-51
2022/08/29 10:35:40;;;;;;;4.85;3.55;;;22.50;99.90;;;;;;5082955;28;20734;-52
2022/08/29 10:38:16;;;;;;;10.88;3.67;;;22.60;99.90;;;;;;5091351;28;20207;-52
2022/08/29 10:40:49;;;;;;;6.57;3.90;;;22.50;99.90;;;;;;5090714;28;20249;-52
2022/08/29 10:43:29;;;;;;;10.63;3.78;;;22.50;99.90;;;;;;5090439;28;20216;-52
2022/08/29 10:46:11;;;;;;;7.30;3.83;;;22.60;99.90;;;;;;5089704;28;20269;-52
2022/08/29 10:48:48;;;;;;;5.47;3.65;;;22.50;99.90;;;;;;5090217;28;20208;-51
2022/08/29 10:51:22;;;;;;;6.97;3.65;;;22.60;99.90;;;;;;5088185;28;20281;-51
2022/08/29 10:53:57;;;;;;;9.23;3.72;;;22.60;99.90;;;;;;5090659;28;20224;-50
2022/08/29 10:56:32;;;;;;;7.82;3.70;;;22.80;99.90;;;;;;5087778;28;20199;-51
2022/08/29 10:59:08;;;;;;;7.72;3.47;;;22.90;99.90;;;;;;5089955;28;20261;-51
2022/08/29 11:01:42;;;;;;;6.88;3.55;;;23.00;99.90;;;;;;5089840;28;20252;-52
2022/08/29 11:04:17;;;;;;;7.75;3.60;;;23.00;99.90;;;;;;5086149;28;20692;-51
2022/08/29 11:06:52;;;;;;;7.25;3.88;;;23.00;99.90;;;;;;5090344;28;20204;-51
2022/08/29 11:09:25;;;;;;;7.50;3.47;;;22.90;99.90;;;;;;5087976;28;20207;-52
2022/08/29 11:12:05;;;;;;;6.35;3.85;;;22.90;99.90;;;;;;5091054;28;20653;-52
2022/08/29 11:14:38;;;;;;;5.97;3.53;;;22.90;99.90;;;;;;5090482;28;20769;-52
2022/08/29 11:17:10;;;;;;;9.18;3.55;;;22.90;99.90;;;;;;5093205;28;20718;-52
2022/08/29 11:19:50;;;;;;;5.75;3.42;;;22.80;99.90;;;;;;5092176;28;20735;-51
2022/08/29 11:22:21;;;;;;;8.23;3.30;;;22.90;99.90;;;;;;5088337;28;20738;-51
2022/08/29 11:24:57;;;;;;;6.45;3.45;;;23.00;99.90;;;;;;5088178;28;20254;-52
2022/08/29 11:27:38;;;;;;;9.95;3.55;;;23.10;99.90;;;;;;5088257;28;20685;-52
2022/08/29 11:30:09;;;;;;;5.97;3.53;;;23.20;99.90;;;;;;5090093;28;20216;-49
2022/08/29 11:32:48;;;;;;;4.10;2.97;;;23.20;99.90;;;;;;5094988;28;20208;-51
2022/08/29 11:35:22;;;;;;;8.38;3.33;;;23.20;99.90;;;;;;5089740;28;20567;-51
2022/08/29 11:38:10;;;;;;;7.60;3.65;;;23.00;99.90;;;;;;5093999;28;20261;-52
2022/08/29 11:40:57;;;;;;;7.22;3.45;;;23.00;99.90;;;;;;5082789;28;20706;-51
2022/08/29 11:43:50;;;;;;;10.80;3.90;;;22.90;99.60;;;;;;5091285;28;20230;-50
2022/08/29 11:46:39;;;;;;;5.32;3.53;;;22.90;99.90;;;;;;5091910;28;20220;-51
2022/08/29 11:49:34;;;;;;;7.70;3.72;;;22.90;99.70;;;;;;5093343;28;20694;-51
2022/08/29 11:52:20;;;;;;;6.35;3.55;;;22.90;99.10;;;;;;5086313;28;20212;-52
2022/08/29 11:55:29;;;;;;;6.85;3.30;;;22.90;99.20;;;;;;5086656;28;20224;-51
2022/08/29 11:58:01;;;;;;;6.13;3.78;;;22.80;99.40;;;;;;5089125;28;20672;-52
2022/08/29 12:00:46;;;;;;;5.18;3.13;;;22.80;99.90;;;;;;5088585;28;20207;-52
2022/08/29 12:03:51;;;;;;;7.47;3.58;;;22.90;99.90;;;;;;5089667;28;20681;-52
2022/08/29 12:06:37;;;;;;;6.47;3.40;;;23.00;99.90;;;;;;5092453;28;20658;-51
2022/08/29 12:09:24;;;;;;;5.57;3.35;;;23.20;99.90;;;;;;5091833;28;20212;-51
2022/08/29 12:12:14;;;;;;;7.78;3.72;;;23.10;99.80;;;;;;5086198;28;20673;-51
2022/08/29 12:14:43;;;;;;;4.97;3.33;;;23.20;99.90;;;;;;5088567;28;20243;-51
2022/08/29 12:17:43;;;;;;;8.13;3.50;;;23.10;99.20;;;;;;5088456;28;20208;-52
2022/08/29 12:20:43;;;;;;;6.20;3.58;;;23.20;99.90;;;;;;5092381;28;20204;-51
2022/08/29 12:23:23;;;;;;;8.85;3.67;;;23.20;99.80;;;;;;5091735;28;20208;-51
2022/08/29 12:25:53;;;;;;;6.78;3.13;;;23.20;99.30;;;;;;5087179;28;20232;-51
2022/08/29 12:28:49;;;;;;;8.35;3.42;;;23.30;99.70;;;;;;5088117;28;20228;-53
2022/08/29 12:31:36;;;;;;;5.60;3.58;;;23.20;99.20;;;;;;5079561;28;20257;-52
2022/08/29 12:34:23;;;;;;;9.15;3.42;;;23.30;99.40;;;;;;5097002;28;20787;-53
2022/08/29 12:37:17;;;;;;;7.15;3.40;;;23.30;98.80;;;;;;5102081;28;20707;-51
2022/08/29 12:40:03;;;;;;;7.03;3.67;;;23.40;98.70;;;;;;5100654;28;20208;-52
2022/08/29 12:42:43;;;;;;;6.55;3.40;;;23.40;98.90;;;;;;5105153;28;20195;-51
2022/08/29 12:45:16;;;;;;;7.53;3.38;;;23.50;98.60;;;;;;5106598;28;20867;-52
2022/08/29 12:47:48;;;;;;;6.30;3.40;;;23.50;98.40;;;;;;5108856;28;20207;-50
2022/08/29 12:50:21;;;;;;;7.70;3.38;;;23.60;98.40;;;;;;5106707;28;20692;-52
2022/08/29 12:53:00;;;;;;;5.70;3.13;;;23.70;98.80;;;;;;5107647;28;20253;-51
2022/08/29 12:55:34;;;;;;;4.70;3.47;;;23.80;98.70;;;;;;5104780;28;20226;-50
2022/08/29 12:58:02;;;;;;;5.30;2.92;;;23.80;98.20;;;;;;5108661;28;20199;-51
2022/08/29 13:00:33;;;;;;;7.65;3.33;;;23.80;97.50;;;;;;5093924;28;20227;-52
2022/08/29 13:03:06;;;;;;;5.65;3.58;;;23.80;97.60;;;;;;5097861;28;20200;-51
2022/08/29 13:05:44;;;;;;;6.47;3.65;;;23.60;97.20;;;;;;5098391;28;21001;-51
2022/08/29 13:08:15;;;;;;;7.30;2.88;;;23.70;97.70;;;;;;5108615;28;20209;-52
2022/08/29 13:10:53;;;;;;;6.05;3.50;;;23.70;97.60;;;;;;5102281;28;20203;-51
2022/08/29 13:13:24;;;;;;;6.50;3.10;;;23.60;97.20;;;;;;5106694;28;20200;-52